Time;durP1;ratioP1;P1;durP2;ratioP2;P2;SDS_P1;SDS_P2;PMS_P1;PMS_P2;Temp;Humidity;BMP_temperature;BMP_pressure;BME280_temperature;BME280_humidity;BME280_pressure;Samples;Min_cycle;Max_cycle;Signal;HPM_P1;HPM_P2
2023/06/11 00:02:57;;;;;;;24.33;22.80;;;19.80;99.90;;;;;;2611010;54;20114;-73
2023/06/11 00:06:17;;;;;;;22.73;21.00;;;19.80;99.90;;;;;;2609219;54;21498;-72
2023/06/11 00:08:45;;;;;;;22.77;21.40;;;19.70;99.90;;;;;;2606554;54;20964;-72
2023/06/11 00:14:32;;;;;;;25.03;23.00;;;19.50;99.90;;;;;;2606982;54;20949;-72
2023/06/11 00:20:20;;;;;;;22.67;20.90;;;19.40;99.90;;;;;;2607687;54;20220;-72
2023/06/11 00:26:09;;;;;;;24.90;23.20;;;19.20;99.90;;;;;;2608389;54;20138;-72
2023/06/11 00:31:57;;;;;;;22.77;21.37;;;19.20;99.90;;;;;;2606447;54;20421;-72
2023/06/11 00:37:47;;;;;;;22.60;21.10;;;19.10;99.90;;;;;;2609378;54;20158;-72
2023/06/11 00:43:37;;;;;;;22.63;20.93;;;19.00;99.90;;;;;;2607535;39;20787;-72
2023/06/11 00:49:24;;;;;;;23.27;21.67;;;18.80;99.90;;;;;;2607353;54;20492;-71
2023/06/11 00:55:12;;;;;;;21.73;20.23;;;18.80;99.90;;;;;;2609797;54;20263;-72
2023/06/11 01:01:05;;;;;;;23.93;22.30;;;18.90;99.90;;;;;;2607946;54;20452;-72
2023/06/11 01:10:47;;;;;;;22.50;21.10;;;18.60;99.90;;;;;;2608450;54;20495;-72
2023/06/11 01:16:45;;;;;;;22.83;21.33;;;18.70;99.90;;;;;;2608868;39;20868;-72
2023/06/11 01:29:11;;;;;;;21.07;19.60;;;18.80;99.90;;;;;;2607655;39;20474;-72
2023/06/11 01:35:01;;;;;;;21.00;19.60;;;18.60;99.90;;;;;;2608098;54;20555;-72
2023/06/11 01:40:48;;;;;;;21.67;20.00;;;18.30;99.90;;;;;;2610401;54;20407;-71
2023/06/11 01:46:36;;;;;;;21.27;19.87;;;18.40;99.90;;;;;;2610674;39;20545;-71
2023/06/11 01:52:24;;;;;;;22.30;20.70;;;18.00;99.90;;;;;;2611494;54;20115;-72
2023/06/11 01:58:12;;;;;;;20.53;19.00;;;18.00;99.90;;;;;;2611346;39;20843;-72
2023/06/11 02:03:59;;;;;;;20.73;19.33;;;18.00;99.90;;;;;;2610052;54;20297;-72
2023/06/11 02:13:09;;;;;;;20.60;19.20;;;18.00;99.90;;;;;;2608828;54;20411;-72
2023/06/11 02:18:57;;;;;;;20.83;19.33;;;18.10;99.90;;;;;;2608991;54;20197;-71
2023/06/11 02:24:45;;;;;;;22.60;20.90;;;18.20;99.90;;;;;;2610211;54;20251;-72
2023/06/11 02:30:33;;;;;;;20.97;19.57;;;18.10;99.90;;;;;;2609541;54;20133;-71
2023/06/11 02:36:21;;;;;;;21.47;19.87;;;18.10;99.90;;;;;;2609263;54;20651;-71
2023/06/11 02:42:09;;;;;;;21.73;20.03;;;17.90;99.90;;;;;;2609170;54;20390;-71
2023/06/11 02:47:57;;;;;;;21.00;19.60;;;17.80;99.90;;;;;;2609929;54;20399;-76
2023/06/11 02:53:45;;;;;;;20.77;19.20;;;17.80;99.90;;;;;;2610097;54;20154;-77
2023/06/11 02:59:33;;;;;;;21.27;19.67;;;17.70;99.90;;;;;;2608463;54;20150;-76
2023/06/11 03:05:21;;;;;;;21.13;19.63;;;17.70;99.90;;;;;;2609181;54;20135;-77
2023/06/11 03:08:32;;;;;;;20.47;19.13;;;17.60;99.90;;;;;;2609490;54;20439;-77
2023/06/11 03:10:57;;;;;;;22.77;21.17;;;17.60;99.90;;;;;;2611588;47;20173;-76
2023/06/11 03:16:45;;;;;;;20.67;18.97;;;17.60;99.90;;;;;;2611478;54;20150;-78
2023/06/11 03:22:33;;;;;;;21.73;20.23;;;17.40;99.90;;;;;;2609858;46;20190;-76
2023/06/11 03:28:21;;;;;;;20.20;18.83;;;17.40;99.90;;;;;;2608960;54;20130;-77
2023/06/11 03:34:09;;;;;;;20.90;19.57;;;17.30;99.90;;;;;;2609202;54;20138;-78
2023/06/11 03:39:56;;;;;;;20.63;19.33;;;17.20;99.90;;;;;;2609374;54;20134;-76
2023/06/11 03:45:44;;;;;;;21.83;20.23;;;17.20;99.90;;;;;;2608312;54;20134;-77
2023/06/11 03:51:32;;;;;;;21.00;19.30;;;17.10;99.90;;;;;;2606451;54;20133;-77
2023/06/11 03:57:20;;;;;;;22.17;20.67;;;17.20;99.90;;;;;;2612521;54;20147;-77
2023/06/11 04:03:08;;;;;;;20.37;18.87;;;17.40;99.90;;;;;;2613044;54;20158;-76
2023/06/11 04:13:01;;;;;;;21.20;19.70;;;17.60;99.90;;;;;;2608152;54;20383;-77
2023/06/11 04:18:49;;;;;;;22.40;20.80;;;17.60;99.90;;;;;;2608480;39;21001;-77
2023/06/11 04:24:37;;;;;;;21.53;19.93;;;17.90;99.90;;;;;;2607155;54;20133;-76
2023/06/11 04:30:26;;;;;;;21.73;20.33;;;18.10;99.90;;;;;;2610374;54;20130;-77
2023/06/11 04:36:14;;;;;;;23.90;22.17;;;18.40;99.90;;;;;;2609914;54;20410;-77
2023/06/11 04:42:02;;;;;;;21.00;19.30;;;18.80;99.90;;;;;;2608817;54;20150;-78
2023/06/11 04:47:50;;;;;;;22.50;21.10;;;19.30;99.90;;;;;;2609767;39;20588;-77
2023/06/11 04:53:38;;;;;;;22.93;21.43;;;19.60;99.90;;;;;;2609324;54;20297;-77
2023/06/11 04:59:26;;;;;;;21.50;20.00;;;20.30;99.90;;;;;;2610278;54;20395;-77
2023/06/11 05:05:14;;;;;;;21.47;20.00;;;20.70;99.90;;;;;;2611190;54;20519;-78
2023/06/11 05:08:33;;;;;;;23.57;22.10;;;20.90;99.90;;;;;;2608973;54;20958;-78
2023/06/11 05:10:58;;;;;;;21.83;20.43;;;21.00;99.90;;;;;;2609366;39;20641;-77
2023/06/11 05:16:46;;;;;;;21.33;20.10;;;21.20;99.90;;;;;;2609350;54;20403;-76
2023/06/11 05:22:34;;;;;;;23.97;22.27;;;21.90;99.90;;;;;;2609882;54;20136;-77
2023/06/11 05:28:22;;;;;;;22.73;20.90;;;22.50;99.90;;;;;;2608862;54;21029;-78
2023/06/11 05:34:10;;;;;;;22.60;20.90;;;22.40;99.90;;;;;;2609759;54;20162;-77
2023/06/11 05:39:58;;;;;;;22.90;21.60;;;22.50;99.90;;;;;;2609189;54;20155;-76
2023/06/11 05:45:47;;;;;;;23.33;22.03;;;22.80;99.90;;;;;;2609801;39;20768;-76
2023/06/11 05:51:35;;;;;;;23.43;21.83;;;23.30;99.90;;;;;;2611113;54;20989;-78
2023/06/11 05:57:24;;;;;;;22.50;21.00;;;24.00;84.50;;;;;;2610834;54;20137;-77
2023/06/11 06:03:12;;;;;;;21.37;20.17;;;24.30;62.80;;;;;;2610342;54;20395;-75
2023/06/11 06:13:06;;;;;;;21.50;20.20;;;25.20;39.50;;;;;;2611379;54;20406;-79
2023/06/11 06:18:54;;;;;;;22.60;21.10;;;25.20;38.60;;;;;;2611817;54;20459;-78
2023/06/11 06:24:41;;;;;;;21.80;20.60;;;25.20;41.00;;;;;;2611891;39;20780;-79
2023/06/11 06:30:32;;;;;;;21.67;20.37;;;25.60;42.20;;;;;;2610994;39;20677;-80
2023/06/11 06:36:20;;;;;;;23.13;21.63;;;26.00;37.70;;;;;;2610094;54;20500;-81
2023/06/11 06:42:08;;;;;;;22.70;20.87;;;26.10;38.00;;;;;;2610361;54;20154;-80
2023/06/11 06:47:56;;;;;;;19.80;18.80;;;26.50;34.00;;;;;;2609616;54;20130;-73
2023/06/11 06:53:44;;;;;;;21.90;20.80;;;27.40;25.00;;;;;;2609821;54;20158;-76
2023/06/11 06:59:31;;;;;;;19.50;18.50;;;27.10;22.00;;;;;;2612658;54;20130;-76
2023/06/11 07:05:19;;;;;;;19.50;18.50;;;27.50;23.80;;;;;;2614581;54;20138;-75
2023/06/11 07:08:36;;;;;;;20.47;19.47;;;27.70;19.40;;;;;;2611518;54;20973;-75
2023/06/11 07:11:02;;;;;;;21.10;19.87;;;27.30;18.70;;;;;;2613947;54;20166;-76
2023/06/11 07:16:49;;;;;;;20.07;18.77;;;27.40;16.70;;;;;;2614371;54;20154;-75
2023/06/11 07:22:37;;;;;;;19.90;18.80;;;27.50;14.40;;;;;;2615149;54;20134;-76
2023/06/11 07:28:24;;;;;;;19.33;18.33;;;28.30;13.30;;;;;;2614533;39;20593;-76
2023/06/11 07:34:13;;;;;;;18.93;17.90;;;28.20;12.80;;;;;;2615174;54;20150;-76
2023/06/11 07:40:00;;;;;;;19.50;18.40;;;27.50;12.10;;;;;;2615966;54;20391;-74
2023/06/11 07:45:48;;;;;;;19.13;18.20;;;28.50;9.70;;;;;;2614998;54;20146;-76
2023/06/11 07:51:36;;;;;;;19.57;18.47;;;28.50;7.10;;;;;;2614271;54;20138;-76
2023/06/11 07:57:24;;;;;;;19.30;18.30;;;27.80;7.30;;;;;;2613845;54;20400;-77
2023/06/11 08:03:11;;;;;;;19.20;18.30;;;28.50;4.20;;;;;;2612352;54;20535;-75
2023/06/11 08:13:08;;;;;;;18.00;17.20;;;28.50;4.90;;;;;;2615337;54;20933;-75
2023/06/11 08:18:57;;;;;;;18.60;17.70;;;29.00;2.80;;;;;;2614502;54;20427;-76
2023/06/11 08:24:44;;;;;;;19.23;18.33;;;29.70;1.00;;;;;;2615261;54;20420;-76
2023/06/11 08:30:32;;;;;;;18.33;17.43;;;30.20;1.00;;;;;;2615049;54;20660;-76
2023/06/11 08:36:23;;;;;;;17.83;16.97;;;29.60;1.00;;;;;;2614168;54;20203;-76
2023/06/11 08:42:11;;;;;;;18.50;17.50;;;29.50;1.00;;;;;;2615151;54;20419;-75
2023/06/11 08:48:02;;;;;;;18.03;17.13;;;29.30;1.00;;;;;;2615110;54;20423;-76
2023/06/11 08:53:50;;;;;;;17.27;16.40;;;30.10;1.00;;;;;;2614529;54;22433;-76
2023/06/11 08:59:38;;;;;;;18.20;17.10;;;30.00;1.00;;;;;;2613421;54;20146;-76
2023/06/11 09:05:25;;;;;;;17.40;16.50;;;29.40;1.00;;;;;;2614212;54;20208;-76
2023/06/11 09:11:21;;;;;;;17.93;17.03;;;29.80;1.00;;;;;;2610569;54;20147;-76
2023/06/11 09:17:15;;;;;;;17.73;16.83;;;29.90;1.00;;;;;;2610066;54;20244;-75
2023/06/11 09:23:04;;;;;;;17.83;16.93;;;29.40;1.00;;;;;;2613176;54;20427;-76
2023/06/11 09:28:58;;;;;;;17.37;16.37;;;29.90;1.00;;;;;;2611956;54;20395;-76
2023/06/11 09:32:11;;;;;;;17.50;16.10;;;30.70;1.00;;;;;;2610827;54;20418;-76
2023/06/11 09:37:58;;;;;;;18.53;17.63;;;29.80;1.00;;;;;;2611914;39;20797;-76
2023/06/11 09:43:51;;;;;;;18.37;17.47;;;30.20;1.00;;;;;;2611078;54;20129;-76
2023/06/11 09:49:40;;;;;;;17.43;16.63;;;31.20;1.00;;;;;;2613564;54;20399;-76
2023/06/11 09:55:28;;;;;;;19.40;18.40;;;31.30;1.00;;;;;;2612870;54;20375;-75
2023/06/11 09:58:32;;;;;;;18.80;17.73;;;29.90;1.00;;;;;;2612536;47;20419;-76
2023/06/11 10:01:00;;;;;;;19.07;18.17;;;30.30;1.00;;;;;;2610267;54;20442;-67
2023/06/11 10:06:50;;;;;;;19.83;18.73;;;30.30;1.00;;;;;;2613277;54;20905;-69
2023/06/11 10:12:38;;;;;;;17.97;16.97;;;31.20;1.00;;;;;;2612247;54;20899;-68
2023/06/11 10:18:29;;;;;;;18.90;17.80;;;31.10;1.00;;;;;;2614389;54;20918;-68
2023/06/11 10:24:26;;;;;;;19.10;18.00;;;30.20;1.00;;;;;;2611795;54;20415;-69
2023/06/11 10:36:47;;;;;;;19.27;18.37;;;31.40;1.00;;;;;;2614635;54;20394;-69
2023/06/11 10:42:38;;;;;;;18.70;17.90;;;31.50;1.00;;;;;;2612924;54;20130;-69
2023/06/11 10:48:28;;;;;;;18.30;17.40;;;31.60;1.00;;;;;;2614146;54;20435;-69
2023/06/11 10:54:33;;;;;;;19.23;18.20;;;31.30;1.00;;;;;;2615045;54;20367;-69
2023/06/11 11:00:23;;;;;;;19.83;18.40;;;31.70;1.00;;;;;;2615351;54;20387;-70
2023/06/11 11:06:11;;;;;;;18.50;17.60;;;31.30;1.00;;;;;;2615109;54;20363;-68
2023/06/11 11:08:36;;;;;;;20.37;19.30;;;31.40;1.00;;;;;;2614361;54;20926;-69
2023/06/11 11:11:02;;;;;;;19.17;18.20;;;31.40;1.00;;;;;;2615008;54;20155;-69
2023/06/11 11:16:50;;;;;;;20.80;19.73;;;31.90;1.00;;;;;;2615280;39;20541;-68
2023/06/11 11:22:38;;;;;;;20.57;18.93;;;31.90;1.00;;;;;;2615379;54;20143;-69
2023/06/11 11:28:29;;;;;;;20.37;19.27;;;32.50;1.00;;;;;;2614347;31;20544;-68
2023/06/11 11:34:19;;;;;;;20.67;19.47;;;31.60;1.00;;;;;;2615146;54;20395;-68
2023/06/11 11:40:07;;;;;;;20.13;18.93;;;31.50;1.00;;;;;;2614000;46;20379;-68
2023/06/11 11:45:55;;;;;;;21.13;19.93;;;31.20;1.00;;;;;;2614814;54;20498;-68
2023/06/11 11:51:51;;;;;;;19.87;18.67;;;31.40;1.00;;;;;;2614831;54;20158;-69
2023/06/11 11:57:40;;;;;;;19.70;18.80;;;33.40;1.00;;;;;;2614989;54;20483;-69
2023/06/11 12:03:27;;;;;;;19.83;18.93;;;31.40;1.00;;;;;;2615517;31;20850;-69
2023/06/11 12:13:08;;;;;;;20.17;18.87;;;31.10;1.00;;;;;;2614812;54;20406;-69
2023/06/11 12:18:57;;;;;;;21.43;20.33;;;30.50;1.00;;;;;;2614783;54;20462;-67
2023/06/11 12:24:45;;;;;;;20.73;19.70;;;29.70;1.00;;;;;;2614740;54;20419;-68
2023/06/11 12:30:34;;;;;;;20.90;19.50;;;30.30;1.00;;;;;;2612902;54;20130;-69
2023/06/11 12:36:22;;;;;;;21.20;20.10;;;30.50;1.00;;;;;;2613794;54;20403;-68
2023/06/11 12:42:10;;;;;;;20.93;19.93;;;32.30;1.00;;;;;;2614813;39;20536;-69
2023/06/11 12:47:58;;;;;;;20.00;19.00;;;32.90;1.00;;;;;;2615027;46;20824;-67
2023/06/11 12:53:46;;;;;;;20.67;19.57;;;31.30;1.00;;;;;;2614728;54;20403;-68
2023/06/11 12:59:33;;;;;;;21.10;20.10;;;30.70;1.00;;;;;;2614998;54;20131;-68
2023/06/11 13:05:21;;;;;;;20.73;19.63;;;30.10;1.00;;;;;;2614749;54;20122;-67
2023/06/11 13:08:40;;;;;;;21.13;19.83;;;30.50;1.00;;;;;;2614565;54;20387;-69
2023/06/11 13:11:05;;;;;;;21.07;19.87;;;30.90;1.00;;;;;;2615741;31;20663;-68
2023/06/11 13:16:54;;;;;;;20.60;19.60;;;32.90;1.00;;;;;;2614973;54;20170;-68
2023/06/11 13:22:42;;;;;;;20.47;19.30;;;31.30;1.00;;;;;;2615315;39;21021;-69
2023/06/11 13:28:30;;;;;;;20.77;19.77;;;30.90;1.00;;;;;;2613767;54;20661;-68
2023/06/11 13:34:18;;;;;;;20.10;19.00;;;30.80;1.00;;;;;;2614127;46;20161;-68
2023/06/11 13:40:07;;;;;;;19.60;18.57;;;31.10;1.00;;;;;;2612616;54;20130;-68
2023/06/11 13:45:57;;;;;;;19.70;18.70;;;32.80;1.00;;;;;;2613049;54;20395;-68
2023/06/11 13:51:45;;;;;;;21.90;20.50;;;31.90;1.00;;;;;;2612661;54;20427;-68
2023/06/11 13:57:33;;;;;;;21.10;19.70;;;33.00;1.00;;;;;;2613127;39;20529;-68
2023/06/11 14:03:21;;;;;;;19.80;18.90;;;32.90;1.00;;;;;;2612473;54;20133;-68
2023/06/11 14:13:11;;;;;;;20.47;19.47;;;33.40;1.00;;;;;;2613671;54;20459;-69
2023/06/11 14:18:58;;;;;;;19.67;18.67;;;32.70;1.00;;;;;;2613261;54;20495;-69
2023/06/11 14:24:46;;;;;;;20.83;19.43;;;32.40;1.00;;;;;;2613656;54;20134;-69
2023/06/11 14:30:34;;;;;;;20.70;19.47;;;31.40;1.00;;;;;;2615026;54;20208;-68
2023/06/11 14:36:21;;;;;;;19.13;18.03;;;32.40;1.00;;;;;;2613882;54;20171;-67
2023/06/11 14:42:10;;;;;;;19.70;18.70;;;33.50;1.00;;;;;;2612009;39;20659;-69
2023/06/11 14:47:58;;;;;;;19.17;18.27;;;32.90;1.00;;;;;;2611496;39;20729;-68
2023/06/11 14:53:45;;;;;;;19.87;18.93;;;31.90;1.00;;;;;;2609520;54;20684;-69
2023/06/11 14:59:33;;;;;;;20.40;19.00;;;32.00;1.00;;;;;;2609491;54;20142;-68
2023/06/11 15:05:21;;;;;;;21.47;20.37;;;32.40;1.00;;;;;;2611296;54;20131;-67
2023/06/11 15:14:48;;;;;;;20.03;18.93;;;33.00;1.00;;;;;;2612423;54;20399;-68
2023/06/11 15:20:35;;;;;;;20.77;19.47;;;32.00;1.00;;;;;;2609599;46;20931;-68
2023/06/11 15:26:23;;;;;;;20.13;18.80;;;31.60;1.00;;;;;;2611579;54;20231;-70
2023/06/11 15:32:12;;;;;;;20.80;19.33;;;31.90;1.00;;;;;;2610836;39;20198;-70
2023/06/11 15:38:00;;;;;;;20.73;19.63;;;30.60;1.00;;;;;;2609625;54;20396;-70
2023/06/11 15:43:48;;;;;;;21.20;20.00;;;30.90;1.00;;;;;;2610005;54;20175;-70
2023/06/11 15:49:36;;;;;;;20.27;19.27;;;31.00;1.00;;;;;;2613124;39;21086;-71
2023/06/11 15:55:23;;;;;;;20.03;19.10;;;30.90;1.00;;;;;;2613440;54;20130;-70
2023/06/11 15:58:27;;;;;;;21.37;20.17;;;31.70;1.00;;;;;;2609250;54;20886;-71
2023/06/11 16:00:53;;;;;;;20.40;19.37;;;31.30;1.00;;;;;;2610277;54;20250;-70
2023/06/11 16:06:40;;;;;;;20.73;19.63;;;31.50;1.00;;;;;;2610718;54;20127;-70
2023/06/11 16:12:28;;;;;;;21.43;20.33;;;31.70;1.00;;;;;;2609814;54;20127;-71
2023/06/11 16:18:17;;;;;;;21.83;20.33;;;31.80;1.00;;;;;;2610225;54;20286;-70
2023/06/11 16:24:06;;;;;;;20.10;19.00;;;32.00;1.00;;;;;;2609762;54;21308;-72
2023/06/11 16:29:54;;;;;;;20.60;19.60;;;29.80;1.00;;;;;;2609130;54;20395;-70
2023/06/11 16:35:41;;;;;;;21.50;20.40;;;30.70;1.00;;;;;;2613952;54;20133;-70
2023/06/11 16:41:29;;;;;;;21.30;20.30;;;30.60;1.00;;;;;;2613191;54;20154;-70
2023/06/11 16:47:17;;;;;;;22.60;21.40;;;30.40;1.00;;;;;;2611429;54;20165;-71
2023/06/11 16:53:04;;;;;;;49.77;46.63;;;30.20;1.00;;;;;;2611468;54;20134;-71
2023/06/11 16:58:54;;;;;;;21.57;20.37;;;30.30;1.00;;;;;;2611644;54;20138;-70
2023/06/11 17:04:42;;;;;;;20.63;19.10;;;29.80;1.00;;;;;;2611158;54;20391;-70
2023/06/11 17:13:52;;;;;;;21.30;20.10;;;29.80;1.00;;;;;;2611957;54;20427;-70
2023/06/11 17:19:44;;;;;;;21.70;20.50;;;30.00;1.00;;;;;;2610291;54;20395;-70
2023/06/11 17:25:33;;;;;;;20.97;19.57;;;29.60;1.00;;;;;;2611830;54;20383;-70
2023/06/11 17:31:20;;;;;;;20.70;19.50;;;29.50;1.00;;;;;;2611946;39;20778;-70
2023/06/11 17:37:08;;;;;;;19.83;18.87;;;29.30;1.00;;;;;;2611774;54;20660;-71
2023/06/11 17:42:57;;;;;;;20.90;19.70;;;28.90;1.00;;;;;;2610933;54;20130;-71
2023/06/11 17:48:45;;;;;;;20.40;19.30;;;28.40;1.00;;;;;;2611052;31;20865;-71
2023/06/11 17:54:34;;;;;;;20.60;19.50;;;28.40;1.00;;;;;;2607260;54;20130;-70
2023/06/11 18:00:22;;;;;;;20.07;19.10;;;28.20;1.00;;;;;;2610092;54;20442;-72
2023/06/11 18:06:10;;;;;;;20.47;19.50;;;28.00;1.00;;;;;;2612346;39;20730;-70
2023/06/11 18:12:08;;;;;;;20.87;19.67;;;27.80;1.00;;;;;;2610536;54;20123;-71
2023/06/11 18:17:55;;;;;;;21.50;20.30;;;27.70;1.00;;;;;;2609191;54;20147;-71
2023/06/11 18:23:43;;;;;;;20.00;19.00;;;27.60;1.00;;;;;;2610419;54;20119;-71
2023/06/11 18:29:30;;;;;;;20.40;19.37;;;27.50;1.00;;;;;;2612062;54;20367;-70
2023/06/11 18:35:17;;;;;;;20.43;19.30;;;27.40;1.00;;;;;;2611686;54;20170;-70
2023/06/11 18:41:05;;;;;;;19.60;18.50;;;27.20;1.00;;;;;;2610883;54;20151;-69
2023/06/11 18:47:00;;;;;;;20.07;19.07;;;27.10;1.00;;;;;;2612042;54;20140;-71
2023/06/11 18:52:48;;;;;;;19.27;18.37;;;26.90;1.00;;;;;;2614441;54;20363;-69
2023/06/11 18:58:35;;;;;;;20.13;18.90;;;26.80;1.00;;;;;;2613344;54;20130;-70
2023/06/11 19:04:23;;;;;;;19.77;18.77;;;26.60;1.00;;;;;;2612591;54;20129;-71
2023/06/11 19:13:56;;;;;;;20.47;19.37;;;26.30;1.00;;;;;;2614117;54;20921;-69
2023/06/11 19:19:44;;;;;;;19.50;18.20;;;26.20;1.00;;;;;;2611689;54;20438;-70
2023/06/11 19:25:32;;;;;;;20.50;19.40;;;26.00;1.00;;;;;;2613233;54;20124;-70
2023/06/11 19:31:20;;;;;;;20.53;19.33;;;25.80;1.00;;;;;;2613314;54;20940;-70
2023/06/11 19:37:08;;;;;;;19.87;18.90;;;25.60;1.00;;;;;;2610672;54;20250;-70
2023/06/11 19:42:55;;;;;;;20.10;18.90;;;25.50;1.00;;;;;;2612524;54;20128;-70
2023/06/11 19:48:43;;;;;;;21.13;20.03;;;25.30;1.00;;;;;;2611134;54;20162;-70
2023/06/11 19:54:31;;;;;;;19.33;18.30;;;25.00;1.00;;;;;;2612276;54;20138;-70
2023/06/11 20:00:19;;;;;;;20.03;19.13;;;24.90;1.00;;;;;;2612118;39;20563;-70
2023/06/11 20:06:07;;;;;;;21.17;19.97;;;24.60;1.00;;;;;;2614572;39;21129;-70
2023/06/11 20:09:25;;;;;;;19.50;18.50;;;24.50;1.00;;;;;;2613407;54;20412;-70
2023/06/11 20:11:53;;;;;;;21.30;19.40;;;24.30;1.00;;;;;;2613645;54;20402;-69
2023/06/11 20:17:41;;;;;;;21.20;19.63;;;24.30;1.00;;;;;;2613124;54;20379;-70
2023/06/11 20:23:33;;;;;;;21.20;20.00;;;24.30;1.00;;;;;;2614089;54;20123;-70
2023/06/11 20:29:22;;;;;;;21.23;20.13;;;24.10;1.00;;;;;;2614151;54;20415;-70
2023/06/11 20:35:10;;;;;;;21.63;20.40;;;23.80;1.00;;;;;;2612374;54;20364;-69
2023/06/11 20:40:57;;;;;;;19.70;18.60;;;23.80;1.00;;;;;;2612235;54;20126;-71
2023/06/11 20:46:45;;;;;;;20.50;19.50;;;23.70;1.00;;;;;;2613317;54;20706;-70
2023/06/11 20:52:33;;;;;;;21.83;20.63;;;23.50;1.00;;;;;;2613177;54;20127;-70
2023/06/11 20:58:21;;;;;;;21.40;20.10;;;23.30;1.00;;;;;;2612417;54;20363;-70
2023/06/11 21:04:09;;;;;;;22.97;21.57;;;23.30;1.00;;;;;;2613260;54;20238;-71
2023/06/11 21:13:58;;;;;;;24.47;22.73;;;23.20;1.00;;;;;;2613067;54;20418;-70
2023/06/11 21:19:45;;;;;;;25.47;23.77;;;23.20;1.00;;;;;;2612423;54;20438;-70
2023/06/11 21:25:33;;;;;;;23.57;21.90;;;23.00;1.00;;;;;;2612597;54;20126;-71
2023/06/11 21:31:22;;;;;;;23.80;22.30;;;22.70;1.00;;;;;;2613190;54;20657;-70
2023/06/11 21:37:10;;;;;;;22.23;20.67;;;22.80;1.00;;;;;;2610762;54;20360;-70
2023/06/11 21:42:57;;;;;;;26.13;24.10;;;22.40;1.00;;;;;;2613001;54;20153;-71
2023/06/11 21:48:45;;;;;;;26.40;24.57;;;22.00;1.00;;;;;;2612989;54;20165;-71
2023/06/11 21:54:33;;;;;;;24.53;22.93;;;22.00;1.00;;;;;;2612223;54;20126;-71
2023/06/11 22:00:21;;;;;;;23.63;22.10;;;21.80;1.00;;;;;;2613902;54;20158;-71
2023/06/11 22:06:09;;;;;;;23.77;22.07;;;21.80;1.00;;;;;;2612725;54;20600;-70
2023/06/11 22:09:29;;;;;;;24.23;22.43;;;21.70;1.00;;;;;;2610981;47;20410;-70
2023/06/11 22:11:57;;;;;;;23.03;21.53;;;21.50;1.00;;;;;;2612586;54;20974;-70
2023/06/11 22:17:46;;;;;;;21.50;20.33;;;21.30;1.00;;;;;;2611278;54;20395;-70
2023/06/11 22:30:18;;;;;;;20.80;19.50;;;20.90;1.00;;;;;;2613299;54;20530;-70
2023/06/11 22:36:06;;;;;;;21.13;19.50;;;20.90;1.00;;;;;;2613755;54;20163;-70
2023/06/11 22:41:54;;;;;;;22.77;20.13;;;20.60;1.00;;;;;;2613629;54;20189;-70
2023/06/11 22:47:42;;;;;;;21.23;20.03;;;20.40;1.60;;;;;;2612728;54;20143;-71
2023/06/11 22:53:31;;;;;;;21.43;20.23;;;20.30;2.50;;;;;;2614001;54;20355;-70
2023/06/11 22:59:19;;;;;;;20.87;19.77;;;20.00;4.50;;;;;;2613159;54;20387;-72
2023/06/11 23:05:08;;;;;;;20.67;19.60;;;19.80;7.10;;;;;;2613208;54;20147;-71
2023/06/11 23:14:18;;;;;;;21.27;19.97;;;19.60;8.00;;;;;;2612381;54;20464;-71
2023/06/11 23:20:09;;;;;;;22.20;20.80;;;19.60;8.00;;;;;;2613071;54;20147;-71
2023/06/11 23:25:57;;;;;;;21.17;19.87;;;19.30;11.40;;;;;;2614226;39;20775;-71
2023/06/11 23:31:45;;;;;;;21.83;20.43;;;19.30;12.80;;;;;;2612205;39;20996;-71
2023/06/11 23:37:33;;;;;;;22.23;21.03;;;18.80;16.90;;;;;;2612314;54;20114;-72
2023/06/11 23:43:21;;;;;;;21.20;20.10;;;18.40;25.20;;;;;;2613304;54;20395;-70
2023/06/11 23:49:08;;;;;;;20.80;19.70;;;18.10;35.70;;;;;;2613505;54;20129;-69
2023/06/11 23:54:57;;;;;;;20.50;19.30;;;18.00;44.20;;;;;;2612966;54;20325;-70
